createdAt,value
2023-04-12T00:02:07.562Z,69.70
2023-04-12T00:04:58.011Z,68.90
2023-04-12T00:07:47.356Z,69.90
2023-04-12T00:10:38.160Z,70.40
2023-04-12T00:13:27.552Z,71.70
2023-04-12T00:16:16.955Z,73.10
2023-04-12T00:19:06.566Z,74.20
2023-04-12T00:21:56.587Z,73.80
2023-04-12T00:24:47.403Z,74.10
2023-04-12T00:27:38.402Z,74.20
2023-04-12T00:30:28.231Z,74.00
2023-04-12T00:33:17.598Z,74.00
2023-04-12T00:36:07.872Z,73.70
2023-04-12T00:38:57.329Z,72.40
2023-04-12T00:41:46.624Z,71.90
2023-04-12T00:44:37.751Z,72.30
2023-04-12T00:47:29.631Z,71.70
2023-04-12T00:50:19.146Z,71.10
2023-04-12T00:53:09.629Z,70.70
2023-04-12T00:56:00.230Z,71.30
2023-04-12T00:58:49.535Z,71.20
2023-04-12T01:01:41.514Z,71.20
2023-04-12T01:04:31.007Z,71.50
2023-04-12T01:07:37.252Z,70.70
2023-04-12T01:10:38.604Z,67.60
2023-04-12T01:13:34.618Z,67.70
2023-04-12T01:16:33.107Z,67.80
2023-04-12T01:19:57.860Z,66.90
2023-04-12T01:23:14.703Z,63.60
2023-04-12T01:26:21.743Z,59.30
2023-04-12T01:29:15.766Z,59.00
2023-04-12T01:32:06.443Z,59.30
2023-04-12T01:34:57.364Z,56.70
2023-04-12T01:37:47.404Z,56.70
2023-04-12T01:40:40.821Z,56.50
2023-04-12T01:43:30.202Z,56.60
2023-04-12T01:46:24.845Z,56.80
2023-04-12T01:49:14.636Z,55.90
2023-04-12T01:52:11.264Z,55.80
2023-04-12T01:55:03.986Z,55.50
2023-04-12T01:57:55.656Z,56.00
2023-04-12T02:00:46.413Z,55.80
2023-04-12T02:03:38.725Z,49.90
2023-04-12T02:06:28.800Z,49.60
2023-04-12T02:09:18.147Z,49.90
2023-04-12T02:12:08.819Z,49.70
2023-04-12T02:14:58.838Z,49.30
2023-04-12T02:17:48.201Z,49.20
2023-04-12T02:20:39.062Z,49.30
2023-04-12T02:23:28.492Z,49.40
2023-04-12T02:26:17.903Z,49.40
2023-04-12T02:29:09.152Z,49.40
2023-04-12T02:31:59.168Z,49.60
2023-04-12T02:34:51.533Z,49.80
2023-04-12T02:37:43.965Z,51.80
2023-04-12T02:40:33.356Z,49.80
2023-04-12T02:43:22.885Z,50.40
2023-04-12T02:46:24.839Z,49.80
2023-04-12T02:49:19.305Z,49.70
2023-04-12T02:52:10.529Z,49.90
2023-04-12T02:55:10.482Z,50.00
2023-04-12T02:57:59.917Z,49.90
2023-04-12T03:00:50.963Z,53.60
2023-04-12T03:03:46.017Z,64.30
2023-04-12T03:06:53.740Z,69.20
2023-04-12T03:09:51.855Z,72.20
2023-04-12T03:12:44.856Z,72.50
2023-04-12T03:15:43.937Z,72.60
2023-04-12T03:18:34.000Z,72.50
2023-04-12T03:21:23.543Z,73.10
2023-04-12T03:24:13.140Z,73.10
2023-04-12T03:27:03.911Z,73.70
2023-04-12T03:29:57.493Z,73.90
2023-04-12T03:32:47.247Z,73.30
2023-04-12T03:35:36.756Z,73.90
2023-04-12T03:38:26.416Z,75.00
2023-04-12T03:41:17.266Z,74.50
2023-04-12T03:44:07.641Z,74.50
2023-04-12T03:46:59.843Z,74.40
2023-04-12T03:50:10.912Z,74.40
2023-04-12T03:53:02.458Z,72.00
2023-04-12T03:55:54.584Z,74.00
2023-04-12T03:58:45.048Z,74.80
2023-04-12T04:01:35.245Z,74.90
2023-04-12T04:04:26.217Z,74.70
2023-04-12T04:07:19.416Z,75.00
2023-04-12T04:10:10.275Z,75.00
2023-04-12T04:13:02.723Z,75.40
2023-04-12T04:18:46.692Z,49.40
2023-04-12T04:21:40.796Z,50.00
2023-04-12T04:24:30.258Z,50.00
2023-04-12T04:27:23.482Z,50.00
2023-04-12T04:30:15.328Z,50.20
2023-04-12T04:33:07.880Z,50.20
2023-04-12T04:35:57.652Z,50.40
2023-04-12T04:38:52.325Z,50.40
2023-04-12T04:41:58.069Z,50.30
2023-04-12T04:45:03.578Z,50.20
2023-04-12T04:47:58.797Z,50.70
2023-04-12T04:50:48.382Z,50.60
2023-04-12T04:53:38.448Z,50.70
2023-04-12T04:56:29.238Z,50.90
2023-04-12T04:59:20.133Z,51.00
2023-04-12T05:02:09.639Z,51.50
2023-04-12T05:05:00.056Z,52.10
2023-04-12T05:07:51.124Z,52.30
2023-04-12T05:10:40.962Z,52.40
2023-04-12T05:13:31.696Z,52.40
2023-04-12T05:16:21.694Z,52.40
2023-04-12T05:19:11.190Z,52.30
2023-04-12T05:22:00.552Z,52.20
2023-04-12T05:24:50.362Z,52.10
2023-04-12T05:27:40.155Z,52.30
2023-04-12T05:30:33.211Z,52.50
2023-04-12T05:33:23.975Z,53.00
2023-04-12T05:36:13.751Z,53.20
2023-04-12T05:39:04.062Z,53.40
2023-04-12T05:41:56.121Z,53.50
2023-04-12T05:44:49.910Z,52.80
2023-04-12T05:47:41.527Z,53.00
2023-04-12T05:50:30.988Z,52.90
2023-04-12T05:53:20.996Z,53.10
2023-04-12T05:56:10.877Z,53.20
2023-04-12T05:59:01.439Z,53.60
2023-04-12T06:01:51.562Z,53.80
2023-04-12T06:04:50.607Z,53.50
2023-04-12T06:07:46.894Z,53.10
2023-04-12T06:10:36.292Z,52.00
2023-04-12T06:13:26.562Z,52.10
2023-04-12T06:16:16.647Z,51.60
2023-04-12T06:19:06.408Z,51.50
2023-04-12T06:21:57.141Z,51.30
2023-04-12T06:24:46.966Z,51.30
2023-04-12T06:27:36.344Z,51.50
2023-04-12T06:30:26.081Z,51.50
2023-04-12T06:33:16.849Z,51.60
2023-04-12T06:36:07.871Z,52.00
2023-04-12T06:38:58.768Z,52.30
2023-04-12T06:41:50.270Z,52.50
2023-04-12T06:44:42.632Z,52.20
2023-04-12T06:47:33.451Z,51.00
2023-04-12T06:50:22.931Z,50.90
2023-04-12T06:53:13.470Z,50.20
2023-04-12T06:56:07.625Z,50.00
2023-04-12T06:58:58.941Z,48.80
2023-04-12T07:01:48.536Z,48.10
2023-04-12T07:04:38.015Z,48.70
2023-04-12T07:07:27.570Z,48.40
2023-04-12T07:10:17.061Z,48.60
2023-04-12T07:13:08.363Z,48.10
2023-04-12T07:15:58.434Z,47.60
2023-04-12T07:18:48.514Z,48.70
2023-04-12T07:21:37.937Z,48.50
2023-04-12T07:24:27.411Z,49.00
2023-04-12T07:27:16.981Z,49.60
2023-04-12T07:30:09.778Z,49.60
2023-04-12T07:33:12.430Z,49.20
2023-04-12T07:36:09.361Z,49.10
2023-04-12T07:38:59.082Z,48.70
2023-04-12T07:41:49.049Z,47.50
2023-04-12T07:44:39.021Z,46.80
2023-04-12T07:47:29.947Z,46.50
2023-04-12T07:50:19.488Z,45.50
2023-04-12T07:53:22.542Z,46.30
2023-04-12T07:56:11.861Z,46.00
2023-04-12T07:59:01.345Z,47.60
2023-04-12T08:01:50.733Z,47.50
2023-04-12T08:04:44.408Z,46.80
2023-04-12T08:07:34.579Z,47.50
2023-04-12T08:10:24.024Z,45.60
2023-04-12T08:13:13.384Z,45.20
2023-04-12T08:16:03.112Z,45.00
2023-04-12T08:18:52.536Z,45.50
2023-04-12T08:21:43.287Z,44.30
2023-04-12T08:24:32.700Z,45.30
2023-04-12T08:27:22.133Z,44.20
2023-04-12T08:30:13.940Z,44.60
2023-04-12T08:33:03.448Z,45.10
2023-04-12T08:35:53.241Z,43.50
2023-04-12T08:38:46.074Z,43.70
2023-04-12T08:41:37.821Z,42.80
2023-04-12T08:44:39.802Z,44.40
2023-04-12T08:47:29.359Z,43.90
2023-04-12T08:50:19.337Z,43.80
2023-04-12T08:53:12.256Z,43.30
2023-04-12T08:56:03.449Z,42.40
2023-04-12T08:58:53.954Z,43.20
2023-04-12T09:01:43.523Z,42.10
2023-04-12T09:04:33.301Z,42.20
2023-04-12T09:07:27.788Z,41.50
2023-04-12T09:10:33.592Z,40.10
2023-04-12T09:13:35.402Z,39.10
2023-04-12T09:16:38.952Z,39.00
2023-04-12T09:19:36.092Z,40.30
2023-04-12T09:22:36.038Z,39.70
2023-04-12T09:25:48.380Z,39.60
2023-04-12T09:28:39.111Z,38.80
2023-04-12T09:31:28.693Z,41.30
2023-04-12T09:34:18.103Z,40.60
2023-04-12T09:37:18.240Z,40.70
2023-04-12T09:40:10.943Z,39.70
2023-04-12T09:43:00.312Z,41.00
2023-04-12T09:45:51.236Z,40.50
2023-04-12T09:48:41.187Z,39.70
2023-04-12T09:51:33.848Z,39.10
2023-04-12T09:54:24.049Z,37.80
2023-04-12T09:57:14.869Z,38.20
2023-04-12T10:00:12.678Z,37.50
2023-04-12T10:03:03.676Z,37.40
2023-04-12T10:05:53.757Z,38.80
2023-04-12T10:08:43.839Z,40.10
2023-04-12T10:11:35.033Z,39.30
2023-04-12T10:14:25.145Z,39.10
2023-04-12T10:17:15.356Z,38.50
2023-04-12T10:20:09.364Z,38.90
2023-04-12T10:23:00.031Z,39.40
2023-04-12T10:25:55.697Z,38.90
2023-04-12T10:28:47.701Z,39.40
2023-04-12T10:31:37.960Z,37.30
2023-04-12T10:34:31.475Z,37.20
2023-04-12T10:37:22.465Z,36.70
2023-04-12T10:40:19.243Z,37.00
2023-04-12T10:43:28.094Z,37.10
2023-04-12T10:46:53.661Z,37.20
2023-04-12T10:50:24.335Z,36.90
2023-04-12T10:53:28.491Z,37.00
2023-04-12T10:56:39.522Z,36.20
2023-04-12T10:59:54.274Z,36.60
2023-04-12T11:03:09.983Z,37.30
2023-04-12T11:06:12.771Z,36.90
2023-04-12T11:09:43.788Z,37.70
2023-04-12T11:12:51.221Z,37.50
2023-04-12T11:15:41.211Z,38.00
2023-04-12T11:18:36.602Z,37.70
2023-04-12T11:21:26.720Z,36.80
2023-04-12T11:24:16.877Z,36.10
2023-04-12T11:27:09.172Z,35.00
2023-04-12T11:30:00.584Z,34.60
2023-04-12T11:32:49.940Z,34.40
2023-04-12T11:35:39.318Z,34.10
2023-04-12T11:38:28.776Z,34.10
2023-04-12T11:41:18.586Z,34.30
2023-04-12T11:44:09.364Z,34.50
2023-04-12T11:46:58.766Z,34.70
2023-04-12T11:49:49.951Z,35.10
2023-04-12T11:52:41.129Z,35.30
2023-04-12T11:55:30.585Z,35.40
2023-04-12T11:58:25.017Z,35.40
2023-04-12T12:01:15.975Z,35.50
2023-04-12T12:04:06.555Z,35.70
2023-04-12T12:06:58.222Z,36.00
2023-04-12T12:09:48.193Z,36.10
2023-04-12T12:12:37.604Z,36.00
2023-04-12T12:15:31.683Z,36.20
2023-04-12T12:18:29.004Z,36.40
2023-04-12T12:21:19.395Z,36.10
2023-04-12T12:24:14.458Z,36.10
2023-04-12T12:27:04.162Z,36.10
2023-04-12T12:29:55.756Z,36.20
2023-04-12T12:32:45.756Z,36.10
2023-04-12T12:35:38.621Z,35.70
2023-04-12T12:38:37.763Z,35.60
2023-04-12T12:41:27.427Z,35.50
2023-04-12T12:44:16.812Z,35.60
2023-04-12T12:47:13.942Z,35.70
2023-04-12T12:50:04.246Z,35.80
2023-04-12T12:52:56.616Z,36.00
2023-04-12T12:55:46.245Z,36.40
2023-04-12T12:58:36.969Z,36.60
2023-04-12T13:01:27.605Z,36.70
2023-04-12T13:04:17.220Z,36.80
2023-04-12T13:07:06.748Z,36.90
2023-04-12T13:09:57.540Z,37.00
2023-04-12T13:12:46.837Z,36.90
2023-04-12T13:15:36.296Z,36.90
2023-04-12T13:18:25.705Z,37.00
2023-04-12T13:21:15.254Z,37.10
2023-04-12T13:24:04.792Z,37.30
2023-04-12T13:26:55.562Z,37.60
2023-04-12T13:29:45.209Z,37.80
2023-04-12T13:32:36.055Z,38.40
2023-04-12T13:35:25.716Z,37.80
2023-04-12T13:38:15.030Z,38.10
2023-04-12T13:41:04.486Z,38.30
2023-04-12T13:43:55.408Z,38.90
2023-04-12T13:46:44.910Z,38.60
2023-04-12T13:49:34.238Z,38.90
2023-04-12T13:52:23.754Z,38.90
2023-04-12T13:55:13.148Z,39.40
2023-04-12T13:58:02.698Z,39.30
2023-04-12T14:00:53.982Z,40.00
2023-04-12T14:03:43.601Z,39.80
2023-04-12T14:06:33.530Z,40.20
2023-04-12T14:09:27.220Z,40.20
2023-04-12T14:12:16.577Z,41.50
2023-04-12T14:15:07.487Z,40.90
2023-04-12T14:17:58.321Z,40.90
2023-04-12T14:20:52.147Z,41.40
2023-04-12T14:23:41.849Z,41.30
2023-04-12T14:26:31.296Z,42.50
2023-04-12T14:29:21.196Z,43.10
2023-04-12T14:32:10.505Z,43.50
2023-04-12T14:35:01.233Z,42.10
2023-04-12T14:37:50.630Z,42.80
2023-04-12T14:40:40.208Z,42.90
2023-04-12T14:43:29.873Z,42.70
2023-04-12T14:46:19.367Z,43.10
2023-04-12T14:49:08.770Z,43.20
2023-04-12T14:52:00.054Z,43.60
2023-04-12T14:54:49.451Z,43.70
2023-04-12T14:57:39.862Z,43.90
2023-04-12T15:00:29.765Z,44.00
2023-04-12T15:03:20.881Z,44.30
2023-04-12T15:06:11.159Z,44.40
2023-04-12T15:09:02.713Z,44.60
2023-04-12T15:11:56.280Z,44.20
2023-04-12T15:14:51.838Z,44.80
2023-04-12T15:17:41.244Z,46.10
2023-04-12T15:20:30.625Z,45.40
2023-04-12T15:23:20.004Z,45.50
2023-04-12T15:26:11.512Z,46.10
2023-04-12T15:29:00.852Z,46.50
2023-04-12T15:31:50.471Z,46.00
2023-04-12T15:34:39.846Z,45.50
2023-04-12T15:37:29.378Z,45.70
2023-04-12T15:40:21.251Z,45.70
2023-04-12T15:43:12.365Z,45.80
2023-04-12T15:46:02.394Z,46.60
2023-04-12T15:48:51.718Z,47.00
2023-04-12T15:51:41.296Z,46.60
2023-04-12T15:54:30.830Z,47.10
2023-04-12T15:57:21.515Z,47.30
2023-04-12T16:00:21.005Z,46.80
2023-04-12T16:03:12.727Z,46.90
2023-04-12T16:06:03.007Z,46.30
2023-04-12T16:08:54.575Z,47.20
2023-04-12T16:11:44.133Z,47.80
2023-04-12T16:14:33.714Z,48.10
2023-04-12T16:17:24.480Z,47.90
2023-04-12T16:20:16.969Z,47.30
2023-04-12T16:23:06.539Z,47.60
2023-04-12T16:25:56.326Z,47.50
2023-04-12T16:28:45.676Z,47.70
2023-04-12T16:31:35.066Z,48.00
2023-04-12T16:34:26.057Z,47.80
2023-04-12T16:37:15.423Z,47.40
2023-04-12T16:40:08.022Z,47.70
2023-04-12T16:42:57.475Z,47.70
2023-04-12T16:45:49.306Z,48.30
2023-04-12T16:48:41.186Z,47.70
2023-04-12T16:51:36.702Z,47.80
2023-04-12T16:54:26.822Z,48.00
2023-04-12T16:57:17.320Z,48.00
2023-04-12T17:00:19.473Z,48.50
2023-04-12T17:03:08.989Z,48.60
2023-04-12T17:05:58.421Z,48.30
2023-04-12T17:08:49.181Z,47.90
2023-04-12T17:11:38.530Z,48.20
2023-04-12T17:14:30.156Z,49.60
2023-04-12T17:17:19.414Z,49.40
2023-04-12T17:20:11.760Z,48.90
2023-04-12T17:23:01.445Z,48.80
2023-04-12T17:25:52.132Z,49.40
2023-04-12T17:28:41.708Z,49.30
2023-04-12T17:34:23.839Z,48.80
2023-04-12T17:37:13.364Z,48.90
2023-04-12T17:40:04.670Z,49.20
2023-04-12T17:42:55.405Z,48.90
2023-04-12T17:45:44.772Z,49.10
2023-04-12T17:48:34.156Z,49.00
2023-04-12T17:51:23.587Z,48.90
2023-04-12T17:54:12.913Z,48.60
2023-04-12T17:57:02.306Z,49.10
2023-04-12T17:59:53.307Z,49.30
2023-04-12T18:02:44.323Z,49.10
2023-04-12T18:05:34.252Z,49.20
2023-04-12T18:08:25.005Z,49.30
2023-04-12T18:11:14.624Z,49.20
2023-04-12T18:14:04.125Z,49.20
2023-04-12T18:16:55.062Z,49.30
2023-04-12T18:19:44.771Z,49.40
2023-04-12T18:22:34.142Z,49.50
2023-04-12T18:25:23.730Z,49.40
2023-04-12T18:28:13.057Z,49.30
2023-04-12T18:31:03.720Z,49.40
2023-04-12T18:33:54.770Z,49.80
2023-04-12T18:36:44.285Z,49.50
2023-04-12T18:39:35.509Z,49.80
2023-04-12T18:42:24.909Z,49.90
2023-04-12T18:45:14.449Z,49.90
2023-04-12T18:48:04.192Z,50.40
2023-04-12T18:50:55.130Z,50.10
2023-04-12T18:53:44.486Z,50.50
2023-04-12T18:56:33.848Z,50.20
2023-04-12T18:59:24.276Z,50.80
2023-04-12T19:02:15.034Z,51.00
2023-04-12T19:05:05.444Z,51.10
2023-04-12T19:07:56.304Z,51.20
2023-04-12T19:10:46.597Z,50.90
2023-04-12T19:13:37.144Z,50.90
2023-04-12T19:16:27.598Z,51.70
2023-04-12T19:19:17.057Z,51.10
2023-04-12T19:22:06.770Z,51.30
2023-04-12T19:24:57.486Z,51.30
2023-04-12T19:27:46.846Z,51.80
2023-04-12T19:30:36.168Z,51.70
2023-04-12T19:33:25.709Z,51.90
2023-04-12T19:36:15.480Z,52.50
2023-04-12T19:39:05.016Z,52.00
2023-04-12T19:41:56.395Z,51.90
2023-04-12T19:44:46.158Z,51.90
2023-04-12T19:47:35.576Z,51.80
2023-04-12T19:50:24.979Z,51.80
2023-04-12T19:53:17.893Z,51.60
2023-04-12T19:56:08.039Z,52.00
2023-04-12T19:59:00.013Z,52.00
2023-04-12T20:01:49.688Z,52.20
2023-04-12T20:04:39.880Z,53.10
2023-04-12T20:07:29.225Z,52.30
2023-04-12T20:10:18.546Z,52.40
2023-04-12T20:13:10.581Z,52.20
2023-04-12T20:16:01.909Z,52.10
2023-04-12T20:18:55.611Z,51.90
2023-04-12T20:21:45.336Z,51.90
2023-04-12T20:24:37.601Z,52.00
2023-04-12T20:27:28.494Z,52.30
2023-04-12T20:30:21.058Z,52.20
2023-04-12T20:33:12.303Z,52.40
2023-04-12T20:36:01.883Z,52.50
2023-04-12T20:38:52.503Z,52.50
2023-04-12T20:41:46.246Z,52.70
2023-04-12T20:44:35.959Z,52.80
2023-04-12T20:47:25.702Z,52.70
2023-04-12T20:50:17.554Z,53.20
2023-04-12T20:53:06.913Z,53.40
2023-04-12T20:55:56.288Z,53.10
2023-04-12T20:58:47.323Z,53.40
2023-04-12T21:01:36.646Z,53.10
2023-04-12T21:04:27.807Z,53.70
2023-04-12T21:07:20.261Z,53.20
2023-04-12T21:10:13.438Z,53.20
2023-04-12T21:13:03.083Z,53.20
2023-04-12T21:15:52.441Z,53.70
2023-04-12T21:18:41.891Z,53.30
2023-04-12T21:21:34.156Z,53.50
2023-04-12T21:24:24.863Z,53.80
2023-04-12T21:27:14.621Z,53.50
2023-04-12T21:30:04.469Z,53.50
2023-04-12T21:32:54.358Z,53.50
2023-04-12T21:35:45.168Z,53.60
2023-04-12T21:38:34.562Z,53.80
2023-04-12T21:41:25.330Z,53.60
2023-04-12T21:44:14.728Z,53.60
2023-04-12T21:47:04.111Z,53.50
2023-04-12T21:49:54.852Z,53.40
2023-04-12T21:52:45.483Z,53.40
2023-04-12T21:55:34.875Z,53.30
2023-04-12T21:58:25.678Z,53.40
2023-04-12T22:01:15.609Z,53.40
2023-04-12T22:04:05.267Z,53.10
2023-04-12T22:06:55.720Z,53.20
2023-04-12T22:09:45.455Z,53.30
2023-04-12T22:12:36.554Z,53.50
2023-04-12T22:15:28.328Z,53.60
2023-04-12T22:18:17.645Z,53.60
2023-04-12T22:21:08.140Z,53.60
2023-04-12T22:23:58.260Z,53.50
2023-04-12T22:26:47.865Z,53.40
2023-04-12T22:29:37.919Z,53.40
2023-04-12T22:32:28.733Z,53.60
2023-04-12T22:35:18.130Z,53.70
2023-04-12T22:38:07.847Z,53.60
2023-04-12T22:41:01.960Z,53.60
2023-04-12T22:44:01.395Z,53.60
2023-04-12T22:46:51.352Z,53.70
2023-04-12T22:49:50.397Z,54.40
2023-04-12T22:52:40.411Z,54.10
2023-04-12T22:55:30.056Z,54.00
2023-04-12T22:58:19.705Z,54.10
2023-04-12T23:01:10.914Z,54.10
2023-04-12T23:04:02.649Z,54.20
2023-04-12T23:06:56.194Z,54.30
2023-04-12T23:09:46.174Z,54.50
2023-04-12T23:12:36.165Z,54.40
2023-04-12T23:15:26.240Z,54.40
2023-04-12T23:18:16.170Z,54.40
2023-04-12T23:21:06.494Z,54.50
2023-04-12T23:23:57.479Z,54.70
2023-04-12T23:26:47.176Z,54.60
2023-04-12T23:29:36.480Z,54.70
2023-04-12T23:32:25.822Z,54.60
2023-04-12T23:35:15.471Z,54.60
2023-04-12T23:38:05.570Z,54.40
2023-04-12T23:40:56.352Z,54.50
2023-04-12T23:43:45.694Z,54.40
2023-04-12T23:46:35.119Z,54.40
2023-04-12T23:49:24.667Z,54.40
2023-04-12T23:52:13.951Z,54.40
2023-04-12T23:55:03.639Z,54.40
2023-04-12T23:57:54.378Z,54.40
